Guangzhou MR Air Base


Codes: ZHGH/LHK
Name: Guangzhou MR Air Base
City: Guanghua
Country: China
Elevation: 0 ft.

Photos at Guangzhou MR Air Base


   Photos courtesy of SpottingLog. You can add your own sightings and photos by signing up for a free trial today.



No photos found.

Weather at Guangzhou MR Air Base


Time (UTC)DescriptionTempratureWindCloud coverageVisibilityPressureHumidity
19-Apr-2024 06:00Moderate Rain16°C7 mph, NW100%6964m1006hPa94%
19-Apr-2024 09:00Moderate Rain17°C4 mph, NW100%10000m1005hPa93%
19-Apr-2024 12:00Light Rain16°C4 mph, E100%10000m1007hPa95%
19-Apr-2024 15:00Overcast Clouds16°C2 mph, SE99%10000m1009hPa96%
19-Apr-2024 18:00Broken Clouds14°C2 mph, S74%10000m1008hPa98%
19-Apr-2024 21:00Broken Clouds13°C2 mph, W61%10000m1008hPa97%
20-Apr-2024 00:00Broken Clouds16°C2 mph, W64%10000m1010hPa83%
20-Apr-2024 03:00Overcast Clouds22°C4 mph, NW100%10000m1010hPa62%
20-Apr-2024 06:00Overcast Clouds26°C7 mph, N100%10000m1007hPa39%
20-Apr-2024 09:00Overcast Clouds23°C9 mph, E100%10000m1006hPa60%
20-Apr-2024 12:00Overcast Clouds20°C4 mph, SE100%10000m1010hPa73%
20-Apr-2024 15:00Overcast Clouds19°C4 mph, SE100%10000m1011hPa71%
20-Apr-2024 18:00Overcast Clouds18°C0 mph, N100%10000m1010hPa74%
20-Apr-2024 21:00Overcast Clouds16°C4 mph, NE90%10000m1010hPa82%
21-Apr-2024 00:00Overcast Clouds19°C2 mph, NW85%10000m1012hPa72%
21-Apr-2024 03:00Broken Clouds24°C4 mph, E70%10000m1012hPa54%
21-Apr-2024 06:00Overcast Clouds26°C7 mph, E85%10000m1010hPa45%
21-Apr-2024 09:00Overcast Clouds25°C7 mph, E92%10000m1008hPa48%
21-Apr-2024 12:00Overcast Clouds21°C4 mph, E93%10000m1010hPa63%
21-Apr-2024 15:00Overcast Clouds19°C2 mph, SE97%10000m1011hPa65%
21-Apr-2024 18:00Overcast Clouds19°C2 mph, W99%10000m1010hPa68%
21-Apr-2024 21:00Overcast Clouds17°C2 mph, SW92%10000m1009hPa75%
22-Apr-2024 00:00Broken Clouds20°C2 mph, W66%10000m1010hPa67%
22-Apr-2024 03:00Broken Clouds25°C4 mph, NW66%10000m1010hPa50%
22-Apr-2024 06:00Broken Clouds28°C2 mph, S83%10000m1008hPa42%
22-Apr-2024 09:00Overcast Clouds27°C7 mph, SE100%10000m1006hPa49%
22-Apr-2024 12:00Overcast Clouds22°C7 mph, SE100%10000m1007hPa64%
22-Apr-2024 15:00Broken Clouds19°C2 mph, SE74%10000m1009hPa80%
22-Apr-2024 18:00Scattered Clouds18°C2 mph, NW38%10000m1009hPa83%
22-Apr-2024 21:00Clear Sky17°C4 mph, W9%10000m1009hPa81%
23-Apr-2024 00:00Clear Sky21°C7 mph, W4%10000m1010hPa66%
23-Apr-2024 03:00Few Clouds28°C7 mph, W23%10000m1011hPa41%
23-Apr-2024 06:00Scattered Clouds29°C7 mph, NE43%10000m1009hPa35%
23-Apr-2024 09:00Light Rain23°C16 mph, E95%10000m1010hPa49%
23-Apr-2024 12:00Light Rain19°C4 mph, W97%10000m1012hPa64%
23-Apr-2024 15:00Overcast Clouds19°C2 mph, S100%10000m1012hPa58%
23-Apr-2024 18:00Overcast Clouds17°C4 mph, NE99%10000m1011hPa64%
23-Apr-2024 21:00Overcast Clouds16°C2 mph, NE92%10000m1010hPa62%
24-Apr-2024 00:00Overcast Clouds19°C0 mph, NW93%10000m1011hPa57%
24-Apr-2024 03:00Overcast Clouds23°C4 mph, E100%10000m1010hPa51%